createdAt,value
2019-04-05T00:00:13.949Z,97.00
2019-04-05T00:02:43.469Z,97.00
2019-04-05T00:05:13.408Z,97.00
2019-04-05T00:07:43.004Z,97.00
2019-04-05T00:10:12.811Z,97.00
2019-04-05T00:12:42.295Z,97.00
2019-04-05T00:15:15.670Z,97.00
2019-04-05T00:17:43.332Z,97.00
2019-04-05T00:20:14.538Z,97.10
2019-04-05T00:22:44.127Z,97.10
2019-04-05T00:25:13.915Z,97.10
2019-04-05T00:27:44.633Z,97.10
2019-04-05T00:30:15.042Z,97.00
2019-04-05T00:32:44.550Z,97.00
2019-04-05T00:35:14.129Z,97.00
2019-04-05T00:37:43.577Z,97.00
2019-04-05T00:40:13.800Z,96.90
2019-04-05T00:42:43.313Z,96.90
2019-04-05T00:45:13.082Z,96.80
2019-04-05T00:47:42.634Z,96.80
2019-04-05T00:50:12.824Z,96.80
2019-04-05T00:52:42.348Z,96.80
2019-04-05T00:55:12.170Z,97.10
2019-04-05T00:57:41.833Z,96.70
2019-04-05T01:00:13.948Z,96.70
2019-04-05T01:02:43.436Z,96.70
2019-04-05T01:05:13.215Z,96.60
2019-04-05T01:07:42.903Z,96.60
2019-04-05T01:10:12.628Z,96.60
2019-04-05T01:12:42.629Z,96.60
2019-04-05T01:15:13.911Z,96.90
2019-04-05T01:17:43.554Z,96.50
2019-04-05T01:20:14.892Z,96.50
2019-04-05T01:22:47.253Z,96.50
2019-04-05T01:25:17.428Z,96.70
2019-04-05T01:27:48.532Z,96.50
2019-04-05T01:30:18.758Z,96.50
2019-04-05T01:32:49.106Z,96.50
2019-04-05T01:35:18.863Z,96.40
2019-04-05T01:37:48.572Z,96.40
2019-04-05T01:40:18.341Z,96.40
2019-04-05T01:42:48.894Z,96.40
2019-04-05T01:45:19.143Z,96.40
2019-04-05T01:47:48.735Z,96.40
2019-04-05T01:50:18.310Z,96.30
2019-04-05T01:52:51.248Z,96.40
2019-04-05T01:55:20.768Z,96.30
2019-04-05T01:57:50.374Z,96.40
2019-04-05T02:00:20.469Z,96.40
2019-04-05T02:02:49.923Z,96.40
2019-04-05T02:05:19.622Z,96.40
2019-04-05T02:07:49.415Z,96.50
2019-04-05T02:10:19.137Z,96.50
2019-04-05T02:12:48.799Z,96.50
2019-04-05T02:15:30.718Z,96.50
2019-04-05T02:18:00.375Z,96.50
2019-04-05T02:20:30.344Z,96.50
2019-04-05T02:23:02.867Z,96.50
2019-04-05T02:25:32.480Z,96.50
2019-04-05T02:28:02.161Z,96.50
2019-04-05T02:30:32.671Z,96.50
2019-04-05T02:33:02.284Z,96.50
2019-04-05T02:35:31.815Z,96.50
2019-04-05T02:38:01.436Z,96.50
2019-04-05T02:40:34.709Z,96.50
2019-04-05T02:43:06.281Z,96.50
2019-04-05T02:45:39.706Z,96.50
2019-04-05T02:48:13.181Z,96.50
2019-04-05T02:50:47.271Z,96.40
2019-04-05T02:53:19.843Z,96.50
2019-04-05T02:55:51.221Z,96.50
2019-04-05T02:58:22.522Z,96.50
2019-04-05T03:00:52.191Z,96.50
2019-04-05T03:03:22.333Z,96.60
2019-04-05T03:05:52.046Z,96.60
2019-04-05T03:08:21.786Z,96.60
2019-04-05T03:11:13.327Z,96.60
2019-04-05T03:13:52.455Z,96.60
2019-04-05T03:16:40.158Z,96.50
2019-04-05T03:19:08.006Z,96.80
2019-04-05T03:21:42.092Z,96.50
2019-04-05T03:24:16.204Z,96.60
2019-04-05T03:26:50.330Z,96.60
2019-04-05T03:29:20.511Z,96.60
2019-04-05T03:31:50.806Z,96.60
2019-04-05T03:34:20.699Z,96.70
2019-04-05T03:36:51.830Z,96.80
2019-04-05T03:39:23.006Z,96.90
2019-04-05T03:41:54.558Z,97.00
2019-04-05T03:44:24.122Z,97.00
2019-04-05T03:46:57.536Z,97.00
2019-04-05T03:49:26.152Z,97.00
2019-04-05T03:51:55.920Z,97.00
2019-04-05T03:54:25.646Z,97.10
2019-04-05T03:56:55.286Z,97.30
2019-04-05T03:59:25.042Z,97.40
2019-04-05T04:01:54.916Z,97.50
2019-04-05T04:04:24.589Z,97.60
2019-04-05T04:06:54.784Z,97.70
2019-04-05T04:09:24.706Z,97.80
2019-04-05T04:11:54.927Z,97.80
2019-04-05T04:14:24.598Z,97.80
2019-04-05T04:17:10.906Z,97.80
2019-04-05T04:19:27.379Z,97.90
2019-04-05T04:22:21.124Z,97.90
2019-04-05T04:24:52.312Z,97.90
2019-04-05T04:27:22.604Z,97.90
2019-04-05T04:29:53.057Z,98.00
2019-04-05T04:32:23.170Z,97.90
2019-04-05T04:34:53.549Z,97.90
2019-04-05T04:37:23.559Z,97.90
2019-04-05T04:39:53.545Z,97.90
2019-04-05T04:42:24.229Z,97.80
2019-04-05T04:44:55.390Z,97.80
2019-04-05T04:47:27.367Z,97.90
2019-04-05T04:49:58.637Z,97.80
2019-04-05T04:52:31.463Z,97.80
2019-04-05T04:55:01.378Z,97.80
2019-04-05T04:57:31.339Z,97.80
2019-04-05T05:00:01.028Z,97.90
2019-04-05T05:02:31.262Z,97.60
2019-04-05T05:05:00.927Z,97.90
2019-04-05T05:07:31.120Z,97.90
2019-04-05T05:10:03.246Z,97.90
2019-04-05T05:12:32.219Z,97.90
2019-04-05T05:15:02.094Z,97.90
2019-04-05T05:17:38.238Z,98.00
2019-04-05T05:20:04.761Z,98.00
2019-04-05T05:22:35.059Z,98.10
2019-04-05T05:25:06.467Z,98.20
2019-04-05T05:27:36.787Z,98.30
2019-04-05T05:30:10.908Z,98.30
2019-04-05T05:32:40.716Z,98.40
2019-04-05T05:35:10.422Z,98.40
2019-04-05T05:37:40.200Z,98.40
2019-04-05T05:40:11.519Z,98.50
2019-04-05T05:42:41.108Z,98.50
2019-04-05T05:45:11.369Z,98.60
2019-04-05T05:47:51.144Z,98.60
2019-04-05T05:50:12.535Z,98.70
2019-04-05T05:52:42.072Z,98.70
2019-04-05T05:55:11.937Z,98.80
2019-04-05T05:57:41.556Z,98.80
2019-04-05T06:00:12.173Z,98.70
2019-04-05T06:02:41.680Z,98.70
2019-04-05T06:05:11.410Z,98.70
2019-04-05T06:07:40.854Z,98.80
2019-04-05T06:10:10.931Z,98.90
2019-04-05T06:12:40.446Z,98.90
2019-04-05T06:15:10.936Z,99.00
2019-04-05T06:17:40.473Z,99.20
2019-04-05T06:20:10.378Z,99.30
2019-04-05T06:22:39.945Z,99.30
2019-04-05T06:25:09.667Z,99.50
2019-04-05T06:27:39.140Z,99.50
2019-04-05T06:30:09.175Z,99.50
2019-04-05T06:32:38.625Z,99.60
2019-04-05T06:35:08.440Z,99.60
2019-04-05T06:37:37.943Z,99.60
2019-04-05T06:40:08.467Z,99.50
2019-04-05T06:42:38.025Z,99.50
2019-04-05T06:45:08.181Z,99.40
2019-04-05T06:47:37.663Z,99.30
2019-04-05T06:50:08.171Z,99.20
2019-04-05T06:52:37.712Z,99.10
2019-04-05T06:55:07.943Z,99.00
2019-04-05T06:57:37.380Z,99.00
2019-04-05T07:00:08.176Z,98.90
2019-04-05T07:02:37.647Z,98.80
2019-04-05T07:05:08.186Z,98.60
2019-04-05T07:07:37.731Z,98.50
2019-04-05T07:10:07.802Z,98.50
2019-04-05T07:12:37.282Z,98.30
2019-04-05T07:15:08.295Z,98.10
2019-04-05T07:17:38.079Z,97.70
2019-04-05T07:20:07.770Z,97.30
2019-04-05T07:22:39.525Z,97.00
2019-04-05T07:25:08.863Z,96.70
2019-04-05T07:27:38.489Z,96.30
2019-04-05T07:30:09.954Z,96.20
2019-04-05T07:32:39.499Z,96.20
2019-04-05T07:35:09.247Z,96.20
2019-04-05T07:37:38.693Z,96.30
2019-04-05T07:40:09.406Z,96.40
2019-04-05T07:42:38.889Z,96.60
2019-04-05T07:45:09.082Z,96.40
2019-04-05T07:47:38.586Z,96.10
2019-04-05T07:50:09.482Z,95.70
2019-04-05T07:52:38.992Z,95.30
2019-04-05T07:55:10.528Z,95.00
2019-04-05T07:57:40.001Z,94.40
2019-04-05T08:00:36.823Z,94.10
2019-04-05T08:03:06.504Z,93.70
2019-04-05T08:05:36.217Z,92.20
2019-04-05T08:08:08.590Z,92.00
2019-04-05T08:10:38.849Z,91.90
2019-04-05T08:13:08.749Z,91.60
2019-04-05T08:15:38.231Z,91.70
2019-04-05T08:18:07.672Z,92.00
2019-04-05T08:20:37.227Z,91.10
2019-04-05T08:23:06.730Z,90.10
2019-04-05T08:25:36.315Z,90.30
2019-04-05T08:28:06.810Z,89.80
2019-04-05T08:30:36.425Z,89.00
2019-04-05T08:33:05.933Z,89.30
2019-04-05T08:35:35.435Z,89.90
2019-04-05T08:38:05.410Z,89.20
2019-04-05T08:40:35.222Z,89.10
2019-04-05T08:43:04.881Z,88.70
2019-04-05T08:45:34.533Z,87.50
2019-04-05T08:48:04.086Z,85.40
2019-04-05T08:50:33.636Z,84.20
2019-04-05T08:53:03.100Z,83.90
2019-04-05T08:55:32.552Z,83.30
2019-04-05T08:58:02.005Z,82.80
2019-04-05T09:00:31.563Z,82.60
2019-04-05T09:03:01.085Z,83.00
2019-04-05T09:05:33.233Z,81.60
2019-04-05T09:08:01.898Z,79.50
2019-04-05T09:10:31.420Z,79.80
2019-04-05T09:13:01.030Z,81.30
2019-04-05T09:15:30.534Z,80.40
2019-04-05T09:17:59.972Z,80.50
2019-04-05T09:20:29.487Z,79.00
2019-04-05T09:22:58.986Z,79.80
2019-04-05T09:25:28.498Z,80.00
2019-04-05T09:27:58.040Z,80.40
2019-04-05T09:30:27.574Z,80.20
2019-04-05T09:32:57.043Z,77.60
2019-04-05T09:35:26.603Z,76.90
2019-04-05T09:37:56.140Z,76.70
2019-04-05T09:40:25.858Z,76.00
2019-04-05T09:42:55.296Z,74.30
2019-04-05T09:45:24.748Z,74.20
2019-04-05T09:47:54.230Z,74.00
2019-04-05T09:50:23.823Z,73.40
2019-04-05T09:52:53.324Z,72.00
2019-04-05T09:55:22.814Z,73.10
2019-04-05T09:57:52.373Z,72.50
2019-04-05T10:00:23.761Z,71.00
2019-04-05T10:02:53.232Z,72.50
2019-04-05T10:05:22.842Z,72.20
2019-04-05T10:07:55.402Z,72.00
2019-04-05T10:10:23.591Z,71.10
2019-04-05T10:12:53.074Z,71.10
2019-04-05T10:15:22.690Z,69.50
2019-04-05T10:17:52.182Z,69.40
2019-04-05T10:20:21.846Z,70.10
2019-04-05T10:22:51.480Z,70.00
2019-04-05T10:25:21.032Z,71.40
2019-04-05T10:27:50.628Z,69.90
2019-04-05T10:30:21.829Z,70.10
2019-04-05T10:32:51.296Z,71.10
2019-04-05T10:35:20.748Z,70.30
2019-04-05T10:37:50.471Z,69.60
2019-04-05T10:40:20.994Z,68.30
2019-04-05T10:42:50.696Z,68.00
2019-04-05T10:45:20.689Z,68.00
2019-04-05T10:47:50.264Z,67.80
2019-04-05T10:50:20.446Z,68.50
2019-04-05T10:52:50.174Z,69.20
2019-04-05T10:55:19.768Z,70.20
2019-04-05T10:57:49.305Z,70.20
2019-04-05T11:00:20.298Z,70.70
2019-04-05T11:02:49.827Z,70.90
2019-04-05T11:05:19.364Z,72.00
2019-04-05T11:07:49.030Z,73.10
2019-04-05T11:10:18.626Z,74.30
2019-04-05T11:12:49.930Z,75.00
2019-04-05T11:15:20.137Z,76.10
2019-04-05T11:17:49.847Z,77.10
2019-04-05T11:20:21.891Z,77.80
2019-04-05T11:22:51.446Z,78.40
2019-04-05T11:25:21.315Z,79.00
2019-04-05T11:27:50.865Z,79.80
2019-04-05T11:30:33.664Z,80.30
2019-04-05T11:33:03.206Z,80.40
2019-04-05T11:35:32.782Z,80.90
2019-04-05T11:38:02.868Z,81.30
2019-04-05T11:40:32.950Z,81.60
2019-04-05T11:43:04.527Z,82.60
2019-04-05T11:45:35.308Z,83.00
2019-04-05T11:48:07.182Z,83.60
2019-04-05T11:50:36.793Z,84.00
2019-04-05T11:53:06.480Z,84.10
2019-04-05T11:55:36.610Z,84.10
2019-04-05T11:58:06.142Z,84.20
2019-04-05T12:00:49.493Z,84.00
2019-04-05T12:03:20.717Z,83.70
2019-04-05T12:05:50.164Z,83.40
2019-04-05T12:08:19.642Z,83.10
2019-04-05T12:10:49.199Z,82.80
2019-04-05T12:13:18.662Z,82.90
2019-04-05T12:15:48.167Z,82.90
2019-04-05T12:18:19.563Z,82.70
2019-04-05T12:20:59.045Z,81.90
2019-04-05T12:23:20.213Z,82.00
2019-04-05T12:25:49.786Z,81.70
2019-04-05T12:28:19.373Z,81.10
2019-04-05T12:30:50.119Z,80.00
2019-04-05T12:33:20.499Z,79.50
2019-04-05T12:35:52.975Z,79.30
2019-04-05T12:38:31.495Z,78.70
2019-04-05T12:41:04.245Z,77.70
2019-04-05T12:43:33.957Z,77.80
2019-04-05T12:46:05.235Z,77.70
2019-04-05T12:48:34.765Z,78.20
2019-04-05T12:51:05.700Z,77.90
2019-04-05T12:53:35.411Z,78.10
2019-04-05T12:56:05.566Z,77.70
2019-04-05T12:58:35.166Z,76.20
2019-04-05T13:01:04.703Z,76.30
2019-04-05T13:03:34.200Z,76.10
2019-04-05T13:06:03.885Z,75.10
2019-04-05T13:08:33.382Z,75.20
2019-04-05T13:11:02.882Z,75.50
2019-04-05T13:13:32.332Z,75.50
2019-04-05T13:16:01.861Z,76.20
2019-04-05T13:18:31.784Z,76.20
2019-04-05T13:21:13.998Z,76.50
2019-04-05T13:23:33.749Z,77.20
2019-04-05T13:26:03.944Z,78.10
2019-04-05T13:28:33.417Z,78.40
2019-04-05T13:31:02.914Z,78.20
2019-04-05T13:33:32.373Z,78.60
2019-04-05T13:36:01.838Z,78.80
2019-04-05T13:38:34.006Z,79.10
2019-04-05T13:41:03.682Z,79.30
2019-04-05T13:43:33.174Z,80.20
2019-04-05T13:46:02.902Z,80.00
2019-04-05T13:48:32.492Z,80.20
2019-04-05T13:51:02.196Z,80.70
2019-04-05T13:53:31.764Z,80.90
2019-04-05T13:56:04.013Z,81.00
2019-04-05T13:58:33.635Z,80.70
2019-04-05T14:01:03.255Z,80.60
2019-04-05T14:03:32.866Z,81.00
2019-04-05T14:06:02.415Z,81.20
2019-04-05T14:08:32.066Z,81.60
2019-04-05T14:11:01.625Z,82.10
2019-04-05T14:13:31.159Z,82.10
2019-04-05T14:16:00.583Z,82.30
2019-04-05T14:18:30.208Z,82.70
2019-04-05T14:21:00.087Z,83.10
2019-04-05T14:23:29.695Z,83.90
2019-04-05T14:25:59.965Z,84.30
2019-04-05T14:28:30.298Z,84.10
2019-04-05T14:31:02.188Z,84.50
2019-04-05T14:33:31.201Z,84.40
2019-04-05T14:36:00.862Z,84.00
2019-04-05T14:38:31.469Z,84.10
2019-04-05T14:41:01.176Z,84.20
2019-04-05T14:43:30.668Z,84.00
2019-04-05T14:46:02.736Z,83.60
2019-04-05T14:48:31.946Z,83.60
2019-04-05T14:51:01.560Z,82.90
2019-04-05T14:53:32.354Z,83.00
2019-04-05T14:56:02.422Z,82.30
2019-04-05T14:58:31.874Z,82.60
2019-04-05T15:01:01.458Z,82.90
2019-04-05T15:03:30.959Z,82.80
2019-04-05T15:06:00.419Z,82.50
2019-04-05T15:08:30.045Z,82.70
2019-04-05T15:10:59.529Z,82.30
2019-04-05T15:13:29.052Z,82.50
2019-04-05T15:15:58.625Z,82.60
2019-04-05T15:18:28.270Z,82.80
2019-04-05T15:20:58.093Z,82.80
2019-04-05T15:23:27.887Z,83.00
2019-04-05T15:25:57.363Z,83.20
2019-04-05T15:28:26.908Z,83.50
2019-04-05T15:30:56.681Z,83.90
2019-04-05T15:33:27.876Z,84.40
2019-04-05T15:36:00.211Z,84.70
2019-04-05T15:38:31.284Z,84.60
2019-04-05T15:40:59.970Z,84.60
2019-04-05T15:43:29.545Z,84.70
2019-04-05T15:45:59.028Z,85.00
2019-04-05T15:48:28.530Z,85.00
2019-04-05T15:50:59.250Z,85.20
2019-04-05T15:53:31.870Z,85.50
2019-04-05T15:56:03.986Z,85.70
2019-04-05T15:58:34.038Z,86.00
2019-04-05T16:01:04.443Z,85.70
2019-04-05T16:03:36.869Z,85.70
2019-04-05T16:06:05.912Z,85.90
2019-04-05T16:08:35.473Z,86.10
2019-04-05T16:11:05.270Z,86.40
2019-04-05T16:13:34.981Z,86.50
2019-04-05T16:16:04.584Z,86.70
2019-04-05T16:18:34.158Z,87.00
2019-04-05T16:21:03.716Z,87.40
2019-04-05T16:23:33.256Z,87.70
2019-04-05T16:26:02.749Z,88.00
2019-04-05T16:28:32.276Z,88.50
2019-04-05T16:31:01.866Z,88.70
2019-04-05T16:33:31.437Z,88.80
2019-04-05T16:36:01.073Z,89.10
2019-04-05T16:38:30.669Z,89.40
2019-04-05T16:41:03.222Z,89.50
2019-04-05T16:43:32.753Z,90.00
2019-04-05T16:46:02.911Z,90.10
2019-04-05T16:48:32.431Z,90.20
2019-04-05T16:51:01.951Z,90.30
2019-04-05T16:53:31.873Z,90.40
2019-04-05T16:56:01.395Z,90.60
2019-04-05T16:58:30.932Z,90.70
2019-04-05T17:01:00.437Z,90.80
2019-04-05T17:03:29.975Z,90.80
2019-04-05T17:05:59.468Z,91.10
2019-04-05T17:08:29.038Z,91.10
2019-04-05T17:10:58.501Z,91.20
2019-04-05T17:13:28.006Z,91.30
2019-04-05T17:15:57.549Z,91.40
2019-04-05T17:18:27.358Z,91.70
2019-04-05T17:20:56.918Z,91.70
2019-04-05T17:23:26.380Z,91.70
2019-04-05T17:25:55.931Z,91.70
2019-04-05T17:28:25.507Z,91.90
2019-04-05T17:30:54.981Z,91.90
2019-04-05T17:33:24.418Z,92.10
2019-04-05T17:35:53.978Z,92.10
2019-04-05T17:38:23.700Z,92.10
2019-04-05T17:40:53.239Z,92.10
2019-04-05T17:43:22.729Z,92.10
2019-04-05T17:45:52.313Z,92.20
2019-04-05T17:48:21.784Z,92.30
2019-04-05T17:50:51.365Z,92.30
2019-04-05T17:53:20.952Z,92.30
2019-04-05T17:55:50.651Z,92.30
2019-04-05T17:58:20.574Z,92.30
2019-04-05T18:00:50.006Z,92.40
2019-04-05T18:03:19.504Z,92.50
2019-04-05T18:05:49.074Z,92.60
2019-04-05T18:08:18.546Z,92.60
2019-04-05T18:10:48.093Z,92.70
2019-04-05T18:13:17.585Z,92.90
2019-04-05T18:15:52.581Z,93.00
2019-04-05T18:18:18.428Z,92.90
2019-04-05T18:20:47.999Z,92.90
2019-04-05T18:23:25.037Z,92.90
2019-04-05T18:25:48.721Z,93.10
2019-04-05T18:28:18.289Z,93.00
2019-04-05T18:30:48.523Z,93.10
2019-04-05T18:33:18.042Z,93.20
2019-04-05T18:35:47.558Z,93.20
2019-04-05T18:38:17.127Z,93.30
2019-04-05T18:40:46.656Z,93.40
2019-04-05T18:43:16.252Z,93.40
2019-04-05T18:45:45.748Z,93.70
2019-04-05T18:48:15.274Z,93.60
2019-04-05T18:50:44.749Z,93.60
2019-04-05T18:53:14.233Z,93.70
2019-04-05T18:55:43.829Z,93.80
2019-04-05T18:58:13.319Z,93.80
2019-04-05T19:00:42.844Z,93.80
2019-04-05T19:03:12.347Z,93.90
2019-04-05T19:05:41.845Z,94.20
2019-04-05T19:08:11.352Z,94.20
2019-04-05T19:10:40.927Z,94.40
2019-04-05T19:13:10.466Z,94.40
2019-04-05T19:15:39.960Z,94.40
2019-04-05T19:18:09.444Z,94.30
2019-04-05T19:20:38.989Z,94.50
2019-04-05T19:23:08.477Z,94.50
2019-04-05T19:25:38.085Z,94.60
2019-04-05T19:28:07.631Z,94.60
2019-04-05T19:48:32.785Z,95.10
2019-04-05T19:50:47.371Z,95.00
2019-04-05T19:53:17.291Z,95.10
2019-04-05T19:55:46.760Z,95.50
2019-04-05T19:58:16.231Z,95.40
2019-04-05T20:00:45.941Z,95.30
2019-04-05T20:03:15.421Z,95.30
2019-04-05T20:05:44.918Z,95.30
2019-04-05T20:08:14.473Z,95.40
2019-04-05T20:10:44.031Z,95.40
2019-04-05T20:13:13.585Z,95.40
2019-04-05T20:15:43.727Z,95.40
2019-04-05T20:18:13.211Z,95.50
2019-04-05T20:20:42.761Z,95.50
2019-04-05T20:23:12.349Z,95.60
2019-04-05T20:25:41.818Z,95.70
2019-04-05T20:28:11.320Z,95.70
2019-04-05T20:30:40.892Z,95.70
2019-04-05T20:33:10.467Z,96.10
2019-04-05T20:35:40.065Z,96.00
2019-04-05T20:38:09.644Z,96.00
2019-04-05T20:40:39.202Z,96.00
2019-04-05T20:43:08.908Z,96.00
2019-04-05T20:45:38.454Z,96.20
2019-04-05T20:48:08.058Z,96.20
2019-04-05T20:50:37.541Z,96.20
2019-04-05T20:53:07.068Z,96.30
2019-04-05T20:55:37.463Z,96.40
2019-04-05T20:58:07.106Z,96.30
2019-04-05T21:00:36.575Z,96.30
2019-04-05T21:03:06.139Z,96.50
2019-04-05T21:05:35.691Z,96.50
2019-04-05T21:08:05.320Z,96.50
2019-04-05T21:10:34.849Z,96.60
2019-04-05T21:13:04.332Z,96.80
2019-04-05T21:15:33.827Z,96.80
2019-04-05T21:18:03.449Z,96.70
2019-04-05T21:20:33.847Z,96.70
2019-04-05T21:23:03.381Z,96.90
2019-04-05T21:25:32.946Z,96.80
2019-04-05T21:28:02.489Z,96.80
2019-04-05T21:30:32.220Z,96.70
2019-04-05T21:33:01.847Z,96.70
2019-04-05T21:35:31.489Z,96.70
2019-04-05T21:38:01.067Z,96.70
2019-04-05T21:40:30.703Z,96.70
2019-04-05T21:43:00.277Z,96.80
2019-04-05T21:45:29.967Z,96.80
2019-04-05T21:47:59.617Z,96.80
2019-04-05T21:50:29.254Z,96.80
2019-04-05T21:52:58.778Z,96.80
2019-04-05T21:55:28.359Z,96.90
2019-04-05T21:57:57.872Z,96.90
2019-04-05T22:00:34.009Z,96.90
2019-04-05T22:03:03.485Z,96.90
2019-04-05T22:05:33.065Z,97.00
2019-04-05T22:08:02.739Z,96.90
2019-04-05T22:10:32.300Z,96.90
2019-04-05T22:13:04.405Z,96.90
2019-04-05T22:15:33.704Z,96.90
2019-04-05T22:18:04.943Z,96.80
2019-04-05T22:20:34.522Z,96.80
2019-04-05T22:23:04.276Z,96.80
2019-04-05T22:25:33.840Z,96.80
2019-04-05T22:28:03.508Z,96.90
2019-04-05T22:30:33.039Z,96.90
2019-04-05T22:33:02.562Z,96.90
2019-04-05T22:35:32.058Z,97.00
2019-04-05T22:38:01.612Z,97.00
2019-04-05T22:40:31.251Z,97.00
2019-04-05T22:43:00.775Z,97.10
2019-04-05T22:45:30.392Z,97.10
2019-04-05T22:47:59.978Z,97.10
2019-04-05T22:50:29.509Z,97.10
2019-04-05T22:52:59.116Z,97.10
2019-04-05T22:55:28.650Z,97.10
2019-04-05T22:57:58.153Z,97.10
2019-04-05T23:00:27.698Z,97.10
2019-04-05T23:02:57.178Z,97.20
2019-04-05T23:05:26.699Z,97.20
2019-04-05T23:07:56.217Z,97.20
2019-04-05T23:10:25.731Z,97.20
2019-04-05T23:12:55.258Z,97.30
2019-04-05T23:15:24.844Z,97.30
2019-04-05T23:17:54.343Z,97.30
2019-04-05T23:20:23.921Z,97.30
2019-04-05T23:22:53.434Z,97.40
2019-04-05T23:25:22.949Z,97.40
2019-04-05T23:27:52.495Z,97.50
2019-04-05T23:30:23.760Z,97.40
2019-04-05T23:32:53.267Z,97.50
2019-04-05T23:35:22.794Z,97.50
2019-04-05T23:37:52.442Z,97.50
2019-04-05T23:40:22.041Z,97.50
2019-04-05T23:42:51.616Z,97.50
2019-04-05T23:45:21.141Z,97.90
2019-04-05T23:47:50.672Z,97.60
2019-04-05T23:50:20.175Z,97.60
2019-04-05T23:52:49.727Z,97.60
2019-04-05T23:55:19.345Z,97.60
2019-04-05T23:57:49.002Z,97.60
